sensor_id;sensor_type;location;lat;lon;timestamp;pressure;altitude;pressure_sealevel;temperature;humidity
11648;BME280;5880;52.342;9.662;2022-12-29T00:00:01;99710.28;;;13.17;58.66
11648;BME280;5880;52.342;9.662;2022-12-29T00:02:26;99714.41;;;13.20;58.57
11648;BME280;5880;52.342;9.662;2022-12-29T00:04:52;99706.47;;;13.23;58.76
11648;BME280;5880;52.342;9.662;2022-12-29T00:07:18;99711.66;;;13.25;58.86
11648;BME280;5880;52.342;9.662;2022-12-29T00:09:44;99710.34;;;13.27;58.68
11648;BME280;5880;52.342;9.662;2022-12-29T00:12:10;99719.97;;;13.30;58.73
11648;BME280;5880;52.342;9.662;2022-12-29T00:14:35;99713.09;;;13.33;58.54
11648;BME280;5880;52.342;9.662;2022-12-29T00:17:20;99713.66;;;13.35;58.71
11648;BME280;5880;52.342;9.662;2022-12-29T00:19:45;99712.28;;;13.37;58.75
11648;BME280;5880;52.342;9.662;2022-12-29T00:22:30;99701.31;;;13.37;58.57
11648;BME280;5880;52.342;9.662;2022-12-29T00:25:14;99707.34;;;13.39;58.69
11648;BME280;5880;52.342;9.662;2022-12-29T00:27:59;99706.22;;;13.40;58.68
11648;BME280;5880;52.342;9.662;2022-12-29T00:30:43;99696.63;;;13.38;59.11
11648;BME280;5880;52.342;9.662;2022-12-29T00:33:32;99695.81;;;13.42;58.70
11648;BME280;5880;52.342;9.662;2022-12-29T00:36:27;99691.94;;;13.43;58.74
11648;BME280;5880;52.342;9.662;2022-12-29T00:39:11;99691.44;;;13.46;58.57
11648;BME280;5880;52.342;9.662;2022-12-29T00:42:02;99688.38;;;13.48;58.84
11648;BME280;5880;52.342;9.662;2022-12-29T00:45:07;99690.31;;;13.47;58.60
11648;BME280;5880;52.342;9.662;2022-12-29T00:47:32;99686.47;;;13.48;58.54
11648;BME280;5880;52.342;9.662;2022-12-29T00:49:58;99682.91;;;13.48;58.62
11648;BME280;5880;52.342;9.662;2022-12-29T00:52:24;99684.00;;;13.52;58.64
11648;BME280;5880;52.342;9.662;2022-12-29T00:54:49;99680.69;;;13.55;58.59
11648;BME280;5880;52.342;9.662;2022-12-29T00:57:15;99679.63;;;13.56;58.80
11648;BME280;5880;52.342;9.662;2022-12-29T00:59:42;99679.31;;;13.58;58.52
11648;BME280;5880;52.342;9.662;2022-12-29T01:02:09;99673.84;;;13.58;58.67
11648;BME280;5880;52.342;9.662;2022-12-29T01:04:35;99674.38;;;13.60;58.63
11648;BME280;5880;52.342;9.662;2022-12-29T01:07:01;99670.56;;;13.61;58.63
11648;BME280;5880;52.342;9.662;2022-12-29T01:09:27;99665.59;;;13.58;58.48
11648;BME280;5880;52.342;9.662;2022-12-29T01:12:12;99654.09;;;13.61;58.52
11648;BME280;5880;52.342;9.662;2022-12-29T01:14:38;99665.88;;;13.61;58.65
11648;BME280;5880;52.342;9.662;2022-12-29T01:17:04;99666.69;;;13.62;58.70
11648;BME280;5880;52.342;9.662;2022-12-29T01:19:30;99657.66;;;13.61;58.59
11648;BME280;5880;52.342;9.662;2022-12-29T01:21:56;99647.22;;;13.63;58.48
11648;BME280;5880;52.342;9.662;2022-12-29T01:24:22;99649.66;;;13.65;58.55
11648;BME280;5880;52.342;9.662;2022-12-29T01:26:48;99639.53;;;13.65;58.45
11648;BME280;5880;52.342;9.662;2022-12-29T01:29:14;99645.84;;;13.66;58.41
11648;BME280;5880;52.342;9.662;2022-12-29T01:31:40;99632.09;;;13.66;58.58
11648;BME280;5880;52.342;9.662;2022-12-29T01:34:05;99631.00;;;13.67;58.46
11648;BME280;5880;52.342;9.662;2022-12-29T01:36:32;99634.59;;;13.67;58.55
11648;BME280;5880;52.342;9.662;2022-12-29T01:38:57;99626.34;;;13.67;58.58
11648;BME280;5880;52.342;9.662;2022-12-29T01:41:23;99615.88;;;13.69;58.68
11648;BME280;5880;52.342;9.662;2022-12-29T01:43:54;99618.09;;;13.72;58.75
11648;BME280;5880;52.342;9.662;2022-12-29T01:46:26;99617.00;;;13.73;58.53
11648;BME280;5880;52.342;9.662;2022-12-29T01:49:18;99619.72;;;13.73;58.53
11648;BME280;5880;52.342;9.662;2022-12-29T01:51:58;99617.53;;;13.76;58.57
11648;BME280;5880;52.342;9.662;2022-12-29T01:54:29;99616.19;;;13.73;58.74
11648;BME280;5880;52.342;9.662;2022-12-29T01:57:00;99618.34;;;13.76;58.60
11648;BME280;5880;52.342;9.662;2022-12-29T01:59:42;99619.72;;;13.79;58.59
11648;BME280;5880;52.342;9.662;2022-12-29T02:02:09;99609.84;;;13.78;58.81
11648;BME280;5880;52.342;9.662;2022-12-29T02:04:40;99596.38;;;13.81;58.66
11648;BME280;5880;52.342;9.662;2022-12-29T02:07:17;99601.59;;;13.83;58.85
11648;BME280;5880;52.342;9.662;2022-12-29T02:09:46;99596.91;;;13.83;58.82
11648;BME280;5880;52.342;9.662;2022-12-29T02:12:13;99597.75;;;13.84;58.71
11648;BME280;5880;52.342;9.662;2022-12-29T02:14:39;99593.91;;;13.85;58.79
11648;BME280;5880;52.342;9.662;2022-12-29T02:20:24;99589.53;;;13.84;58.74
11648;BME280;5880;52.342;9.662;2022-12-29T02:23:18;99589.53;;;13.84;58.82
11648;BME280;5880;52.342;9.662;2022-12-29T02:29:20;99573.56;;;13.86;58.85
11648;BME280;5880;52.342;9.662;2022-12-29T02:32:18;99581.78;;;13.86;58.78
11648;BME280;5880;52.342;9.662;2022-12-29T02:35:01;99574.09;;;13.88;58.76
11648;BME280;5880;52.342;9.662;2022-12-29T02:37:49;99571.91;;;13.90;58.77
11648;BME280;5880;52.342;9.662;2022-12-29T02:40:23;99570.28;;;13.89;58.90
11648;BME280;5880;52.342;9.662;2022-12-29T02:43:22;99574.38;;;13.91;58.75
11648;BME280;5880;52.342;9.662;2022-12-29T02:46:12;99566.16;;;13.86;58.79
11648;BME280;5880;52.342;9.662;2022-12-29T02:51:44;99573.56;;;13.91;58.61
11648;BME280;5880;52.342;9.662;2022-12-29T02:54:12;99558.72;;;13.92;58.94
11648;BME280;5880;52.342;9.662;2022-12-29T02:56:56;99546.91;;;13.91;58.89
11648;BME280;5880;52.342;9.662;2022-12-29T02:59:23;99553.22;;;13.92;58.83
11648;BME280;5880;52.342;9.662;2022-12-29T03:08:28;99552.44;;;13.86;58.86
11648;BME280;5880;52.342;9.662;2022-12-29T03:11:05;99546.09;;;13.86;58.92
11648;BME280;5880;52.342;9.662;2022-12-29T03:13:44;99543.34;;;13.86;58.97
11648;BME280;5880;52.342;9.662;2022-12-29T03:16:45;99517.56;;;13.82;59.16
11648;BME280;5880;52.342;9.662;2022-12-29T03:19:21;99524.66;;;13.88;59.08
11648;BME280;5880;52.342;9.662;2022-12-29T03:22:05;99518.09;;;13.89;59.24
11648;BME280;5880;52.342;9.662;2022-12-29T03:25:24;99522.78;;;13.88;59.54
11648;BME280;5880;52.342;9.662;2022-12-29T03:28:03;99509.56;;;13.90;59.29
11648;BME280;5880;52.342;9.662;2022-12-29T03:30:34;99509.81;;;13.94;59.35
11648;BME280;5880;52.342;9.662;2022-12-29T03:33:07;99502.94;;;13.97;59.29
11648;BME280;5880;52.342;9.662;2022-12-29T03:35:38;99504.03;;;14.01;59.24
11648;BME280;5880;52.342;9.662;2022-12-29T03:38:49;99507.03;;;14.04;59.28
11648;BME280;5880;52.342;9.662;2022-12-29T03:41:25;99508.69;;;14.05;59.39
11648;BME280;5880;52.342;9.662;2022-12-29T03:43:52;99507.03;;;14.09;59.49
11648;BME280;5880;52.342;9.662;2022-12-29T03:46:18;99500.94;;;14.12;59.37
11648;BME280;5880;52.342;9.662;2022-12-29T03:48:44;99497.34;;;14.17;59.36
11648;BME280;5880;52.342;9.662;2022-12-29T03:51:09;99491.56;;;14.19;59.32
11648;BME280;5880;52.342;9.662;2022-12-29T03:53:35;99482.47;;;14.23;59.41
11648;BME280;5880;52.342;9.662;2022-12-29T03:56:00;99479.44;;;14.25;59.26
11648;BME280;5880;52.342;9.662;2022-12-29T03:58:26;99490.69;;;14.28;59.31
11648;BME280;5880;52.342;9.662;2022-12-29T04:00:52;99489.00;;;14.32;59.23
11648;BME280;5880;52.342;9.662;2022-12-29T04:03:18;99499.72;;;14.34;59.34
11648;BME280;5880;52.342;9.662;2022-12-29T04:05:43;99494.75;;;14.36;59.35
11648;BME280;5880;52.342;9.662;2022-12-29T04:08:09;99496.66;;;14.41;59.35
11648;BME280;5880;52.342;9.662;2022-12-29T04:10:35;99499.94;;;14.43;59.16
11648;BME280;5880;52.342;9.662;2022-12-29T04:13:00;99500.19;;;14.46;59.18
11648;BME280;5880;52.342;9.662;2022-12-29T04:15:26;99489.50;;;14.45;59.18
11648;BME280;5880;52.342;9.662;2022-12-29T04:17:52;99485.88;;;14.49;59.22
11648;BME280;5880;52.342;9.662;2022-12-29T04:20:17;99499.88;;;14.53;59.12
11648;BME280;5880;52.342;9.662;2022-12-29T04:23:06;99493.31;;;14.54;59.00
11648;BME280;5880;52.342;9.662;2022-12-29T04:25:33;99491.91;;;14.56;59.02
11648;BME280;5880;52.342;9.662;2022-12-29T04:28:00;99491.91;;;14.56;59.06
11648;BME280;5880;52.342;9.662;2022-12-29T04:30:26;99486.94;;;14.59;59.02
11648;BME280;5880;52.342;9.662;2022-12-29T04:32:51;99492.16;;;14.60;58.92
11648;BME280;5880;52.342;9.662;2022-12-29T04:35:17;99487.19;;;14.62;58.94
11648;BME280;5880;52.342;9.662;2022-12-29T04:37:43;99488.81;;;14.63;59.04
11648;BME280;5880;52.342;9.662;2022-12-29T04:40:09;99510.53;;;14.65;59.10
11648;BME280;5880;52.342;9.662;2022-12-29T04:42:35;99502.81;;;14.67;59.04
11648;BME280;5880;52.342;9.662;2022-12-29T04:45:01;99491.56;;;14.68;58.94
11648;BME280;5880;52.342;9.662;2022-12-29T04:47:27;99477.25;;;14.66;59.12
11648;BME280;5880;52.342;9.662;2022-12-29T04:49:52;99486.28;;;14.72;58.82
11648;BME280;5880;52.342;9.662;2022-12-29T04:52:18;99476.09;;;14.72;58.76
11648;BME280;5880;52.342;9.662;2022-12-29T04:54:44;99477.75;;;14.73;58.71
11648;BME280;5880;52.342;9.662;2022-12-29T04:57:09;99477.47;;;14.75;58.90
11648;BME280;5880;52.342;9.662;2022-12-29T04:59:35;99463.72;;;14.75;58.92
11648;BME280;5880;52.342;9.662;2022-12-29T05:02:01;99471.63;;;14.82;58.81
11648;BME280;5880;52.342;9.662;2022-12-29T05:04:26;99466.38;;;14.85;58.84
11648;BME280;5880;52.342;9.662;2022-12-29T05:06:52;99465.78;;;14.88;58.86
11648;BME280;5880;52.342;9.662;2022-12-29T05:09:18;99471.53;;;14.92;58.83
11648;BME280;5880;52.342;9.662;2022-12-29T05:11:43;99462.69;;;14.95;58.74
11648;BME280;5880;52.342;9.662;2022-12-29T05:14:09;99463.25;;;14.97;58.66
11648;BME280;5880;52.342;9.662;2022-12-29T05:16:34;99469.84;;;14.96;58.39
11648;BME280;5880;52.342;9.662;2022-12-29T05:19:00;99454.72;;;14.98;58.42
11648;BME280;5880;52.342;9.662;2022-12-29T05:21:26;99446.72;;;14.97;58.38
11648;BME280;5880;52.342;9.662;2022-12-29T05:23:51;99460.72;;;15.01;58.43
11648;BME280;5880;52.342;9.662;2022-12-29T05:26:17;99450.84;;;14.99;58.35
11648;BME280;5880;52.342;9.662;2022-12-29T05:28:43;99450.56;;;15.01;58.28
11648;BME280;5880;52.342;9.662;2022-12-29T05:31:08;99446.72;;;14.97;58.27
11648;BME280;5880;52.342;9.662;2022-12-29T05:33:34;99458.81;;;15.01;58.38
11648;BME280;5880;52.342;9.662;2022-12-29T05:36:07;99465.34;;;15.05;58.34
11648;BME280;5880;52.342;9.662;2022-12-29T05:38:34;99462.59;;;15.05;58.38
11648;BME280;5880;52.342;9.662;2022-12-29T05:41:00;99466.19;;;15.06;58.18
11648;BME280;5880;52.342;9.662;2022-12-29T05:43:26;99457.63;;;15.07;58.19
11648;BME280;5880;52.342;9.662;2022-12-29T05:45:52;99463.13;;;15.07;58.24
11648;BME280;5880;52.342;9.662;2022-12-29T05:48:18;99468.63;;;15.07;58.14
11648;BME280;5880;52.342;9.662;2022-12-29T05:50:49;99467.28;;;15.05;58.09
11648;BME280;5880;52.342;9.662;2022-12-29T05:53:16;99469.75;;;15.06;58.01
11648;BME280;5880;52.342;9.662;2022-12-29T05:55:43;99468.09;;;15.05;57.99
11648;BME280;5880;52.342;9.662;2022-12-29T05:58:09;99470.34;;;15.03;58.06
11648;BME280;5880;52.342;9.662;2022-12-29T06:00:35;99469.50;;;15.03;57.72
11648;BME280;5880;52.342;9.662;2022-12-29T06:03:00;99472.56;;;15.01;58.00
11648;BME280;5880;52.342;9.662;2022-12-29T06:05:26;99462.44;;;14.96;57.94
11648;BME280;5880;52.342;9.662;2022-12-29T06:07:52;99465.19;;;14.96;58.03
11648;BME280;5880;52.342;9.662;2022-12-29T06:10:17;99454.44;;;14.95;57.87
11648;BME280;5880;52.342;9.662;2022-12-29T06:12:43;99459.72;;;14.91;57.94
11648;BME280;5880;52.342;9.662;2022-12-29T06:15:09;99437.47;;;14.88;57.99
11648;BME280;5880;52.342;9.662;2022-12-29T06:17:35;99439.47;;;14.82;57.99
11648;BME280;5880;52.342;9.662;2022-12-29T06:20:02;99424.31;;;14.80;57.94
11648;BME280;5880;52.342;9.662;2022-12-29T06:22:28;99432.34;;;14.76;58.11
11648;BME280;5880;52.342;9.662;2022-12-29T06:24:53;99417.00;;;14.70;58.31
11648;BME280;5880;52.342;9.662;2022-12-29T06:27:19;99430.47;;;14.71;58.26
11648;BME280;5880;52.342;9.662;2022-12-29T06:29:45;99427.72;;;14.71;58.36
11648;BME280;5880;52.342;9.662;2022-12-29T06:32:11;99415.09;;;14.70;58.55
11648;BME280;5880;52.342;9.662;2022-12-29T06:34:37;99411.81;;;14.68;58.50
11648;BME280;5880;52.342;9.662;2022-12-29T06:37:03;99420.88;;;14.69;58.66
11648;BME280;5880;52.342;9.662;2022-12-29T06:39:28;99412.63;;;14.69;58.59
11648;BME280;5880;52.342;9.662;2022-12-29T06:41:54;99413.44;;;14.69;58.74
11648;BME280;5880;52.342;9.662;2022-12-29T06:44:21;99402.44;;;14.69;58.81
11648;BME280;5880;52.342;9.662;2022-12-29T06:46:47;99400.22;;;14.71;58.71
11648;BME280;5880;52.342;9.662;2022-12-29T06:49:13;99402.97;;;14.71;58.73
11648;BME280;5880;52.342;9.662;2022-12-29T06:51:39;99405.72;;;14.71;58.70
11648;BME280;5880;52.342;9.662;2022-12-29T06:54:05;99402.16;;;14.71;58.80
11648;BME280;5880;52.342;9.662;2022-12-29T06:56:30;99416.66;;;14.76;58.92
11648;BME280;5880;52.342;9.662;2022-12-29T06:58:56;99408.13;;;14.78;58.83
11648;BME280;5880;52.342;9.662;2022-12-29T07:01:22;99399.28;;;14.81;58.94
11648;BME280;5880;52.342;9.662;2022-12-29T07:03:48;99400.63;;;14.84;58.83
11648;BME280;5880;52.342;9.662;2022-12-29T07:06:14;99406.13;;;14.84;58.87
11648;BME280;5880;52.342;9.662;2022-12-29T07:08:39;99405.59;;;14.87;58.83
11648;BME280;5880;52.342;9.662;2022-12-29T07:11:05;99424.25;;;14.90;58.91
11648;BME280;5880;52.342;9.662;2022-12-29T07:13:31;99419.28;;;14.92;58.63
11648;BME280;5880;52.342;9.662;2022-12-29T07:15:57;99436.59;;;14.92;58.88
11648;BME280;5880;52.342;9.662;2022-12-29T07:18:22;99451.97;;;14.93;58.83
11648;BME280;5880;52.342;9.662;2022-12-29T07:20:48;99478.63;;;14.98;58.77
11648;BME280;5880;52.342;9.662;2022-12-29T07:23:13;99493.72;;;15.01;58.57
11648;BME280;5880;52.342;9.662;2022-12-29T07:25:39;99490.97;;;15.01;58.50
11648;BME280;5880;52.342;9.662;2022-12-29T07:28:07;99508.88;;;14.98;58.17
11648;BME280;5880;52.342;9.662;2022-12-29T07:30:32;99518.84;;;14.94;58.04
11648;BME280;5880;52.342;9.662;2022-12-29T07:32:58;99517.50;;;14.86;57.80
11648;BME280;5880;52.342;9.662;2022-12-29T07:35:24;99518.72;;;14.75;57.79
11648;BME280;5880;52.342;9.662;2022-12-29T07:37:50;99517.38;;;14.67;58.04
11648;BME280;5880;52.342;9.662;2022-12-29T07:40:15;99523.50;;;14.59;57.81
11648;BME280;5880;52.342;9.662;2022-12-29T07:42:41;99524.88;;;14.51;57.66
11648;BME280;5880;52.342;9.662;2022-12-29T07:45:08;99534.56;;;14.44;57.90
11648;BME280;5880;52.342;9.662;2022-12-29T07:47:34;99534.88;;;14.37;57.75
11648;BME280;5880;52.342;9.662;2022-12-29T07:50:00;99539.31;;;14.33;57.90
11648;BME280;5880;52.342;9.662;2022-12-29T07:52:26;99520.66;;;14.25;57.88
11648;BME280;5880;52.342;9.662;2022-12-29T07:54:51;99519.03;;;14.24;57.81
11648;BME280;5880;52.342;9.662;2022-12-29T07:57:17;99514.38;;;14.19;57.73
11648;BME280;5880;52.342;9.662;2022-12-29T07:59:43;99504.25;;;14.14;57.72
11648;BME280;5880;52.342;9.662;2022-12-29T08:02:11;99518.25;;;14.13;57.79
11648;BME280;5880;52.342;9.662;2022-12-29T08:04:37;99518.28;;;14.08;57.79
11648;BME280;5880;52.342;9.662;2022-12-29T08:07:03;99518.84;;;14.05;57.90
11648;BME280;5880;52.342;9.662;2022-12-29T08:09:29;99535.88;;;14.02;58.03
11648;BME280;5880;52.342;9.662;2022-12-29T08:11:55;99540.56;;;14.01;57.95
11648;BME280;5880;52.342;9.662;2022-12-29T08:14:20;99534.50;;;13.99;58.07
11648;BME280;5880;52.342;9.662;2022-12-29T08:16:46;99539.47;;;13.97;58.14
11648;BME280;5880;52.342;9.662;2022-12-29T08:19:13;99563.09;;;13.98;58.18
11648;BME280;5880;52.342;9.662;2022-12-29T08:21:39;99553.19;;;13.97;58.25
11648;BME280;5880;52.342;9.662;2022-12-29T08:24:06;99549.41;;;13.93;58.28
11648;BME280;5880;52.342;9.662;2022-12-29T08:26:32;99551.28;;;13.98;58.40
11648;BME280;5880;52.342;9.662;2022-12-29T08:28:57;99547.16;;;13.95;58.40
11648;BME280;5880;52.342;9.662;2022-12-29T08:31:23;99553.19;;;13.97;58.44
11648;BME280;5880;52.342;9.662;2022-12-29T08:33:49;99565.00;;;13.98;58.52
11648;BME280;5880;52.342;9.662;2022-12-29T08:36:15;99565.84;;;13.98;58.40
11648;BME280;5880;52.342;9.662;2022-12-29T08:38:41;99569.41;;;13.99;58.40
11648;BME280;5880;52.342;9.662;2022-12-29T08:41:07;99569.97;;;14.01;58.15
11648;BME280;5880;52.342;9.662;2022-12-29T08:43:33;99568.56;;;14.03;58.40
11648;BME280;5880;52.342;9.662;2022-12-29T08:45:59;99568.56;;;14.03;58.33
11648;BME280;5880;52.342;9.662;2022-12-29T08:48:25;99582.28;;;14.08;58.20
11648;BME280;5880;52.342;9.662;2022-12-29T08:50:51;99578.44;;;14.09;58.40
11648;BME280;5880;52.342;9.662;2022-12-29T08:53:18;99581.19;;;14.09;58.38
11648;BME280;5880;52.342;9.662;2022-12-29T08:55:55;99596.28;;;14.12;58.11
11648;BME280;5880;52.342;9.662;2022-12-29T08:58:21;99599.31;;;14.10;58.09
11648;BME280;5880;52.342;9.662;2022-12-29T09:00:46;99583.66;;;14.11;57.93
11648;BME280;5880;52.342;9.662;2022-12-29T09:03:12;99597.38;;;14.11;58.01
11648;BME280;5880;52.342;9.662;2022-12-29T09:05:37;99591.88;;;14.11;57.98
11648;BME280;5880;52.342;9.662;2022-12-29T09:08:04;99593.56;;;14.12;57.93
11648;BME280;5880;52.342;9.662;2022-12-29T09:10:30;99581.44;;;14.13;57.88
11648;BME280;5880;52.342;9.662;2022-12-29T09:12:56;99576.50;;;14.15;58.02
11648;BME280;5880;52.342;9.662;2022-12-29T09:15:22;99594.59;;;14.16;58.15
11648;BME280;5880;52.342;9.662;2022-12-29T09:17:47;99586.91;;;14.18;58.19
11648;BME280;5880;52.342;9.662;2022-12-29T09:20:17;99579.22;;;14.20;58.07
11648;BME280;5880;52.342;9.662;2022-12-29T09:22:45;99586.38;;;14.21;58.07
11648;BME280;5880;52.342;9.662;2022-12-29T09:25:13;99582.50;;;14.22;57.99
11648;BME280;5880;52.342;9.662;2022-12-29T09:27:39;99593.22;;;14.24;58.05
11648;BME280;5880;52.342;9.662;2022-12-29T09:30:08;99589.34;;;14.25;58.14
11648;BME280;5880;52.342;9.662;2022-12-29T09:32:35;99593.78;;;14.26;58.18
11648;BME280;5880;52.342;9.662;2022-12-29T09:35:01;99595.13;;;14.28;58.21
11648;BME280;5880;52.342;9.662;2022-12-29T09:37:27;99596.50;;;14.31;58.24
11648;BME280;5880;52.342;9.662;2022-12-29T09:39:52;99589.31;;;14.35;58.23
11648;BME280;5880;52.342;9.662;2022-12-29T09:42:48;99602.19;;;14.40;58.31
11648;BME280;5880;52.342;9.662;2022-12-29T09:45:33;99598.09;;;14.42;58.40
11648;BME280;5880;52.342;9.662;2022-12-29T09:48:05;99607.69;;;14.45;58.41
11648;BME280;5880;52.342;9.662;2022-12-29T09:50:37;99606.31;;;14.47;58.27
11648;BME280;5880;52.342;9.662;2022-12-29T09:53:36;99619.47;;;14.50;58.45
11648;BME280;5880;52.342;9.662;2022-12-29T09:56:11;99616.72;;;14.50;58.38
11648;BME280;5880;52.342;9.662;2022-12-29T09:58:47;99616.19;;;14.48;58.29
11648;BME280;5880;52.342;9.662;2022-12-29T10:01:41;99612.63;;;14.48;58.17
11648;BME280;5880;52.342;9.662;2022-12-29T10:04:09;99612.91;;;14.46;58.29
11648;BME280;5880;52.342;9.662;2022-12-29T10:06:58;99606.00;;;14.49;58.21
11648;BME280;5880;52.342;9.662;2022-12-29T10:10:17;99602.19;;;14.45;58.15
11648;BME280;5880;52.342;9.662;2022-12-29T10:13:16;99600.25;;;14.45;58.33
11648;BME280;5880;52.342;9.662;2022-12-29T10:16:08;99613.47;;;14.43;58.07
11648;BME280;5880;52.342;9.662;2022-12-29T10:22:12;99607.69;;;14.40;58.10
11648;BME280;5880;52.342;9.662;2022-12-29T10:24:46;99609.94;;;14.38;58.24
11648;BME280;5880;52.342;9.662;2022-12-29T10:27:14;99595.88;;;14.39;58.14
11648;BME280;5880;52.342;9.662;2022-12-29T10:30:03;99601.66;;;14.43;58.12
11648;BME280;5880;52.342;9.662;2022-12-29T10:33:01;99580.22;;;14.45;58.48
11648;BME280;5880;52.342;9.662;2022-12-29T10:35:39;99574.41;;;14.46;58.58
11648;BME280;5880;52.342;9.662;2022-12-29T10:38:34;99583.75;;;14.50;58.62
11648;BME280;5880;52.342;9.662;2022-12-29T10:41:25;99589.53;;;14.54;58.51
11648;BME280;5880;52.342;9.662;2022-12-29T10:43:56;99586.22;;;14.57;58.56
11648;BME280;5880;52.342;9.662;2022-12-29T10:46:35;99571.06;;;14.60;58.51
11648;BME280;5880;52.342;9.662;2022-12-29T10:49:02;99569.09;;;14.65;58.47
11648;BME280;5880;52.342;9.662;2022-12-29T10:51:36;99574.59;;;14.70;58.26
11648;BME280;5880;52.342;9.662;2022-12-29T10:54:19;99573.19;;;14.73;58.17
11648;BME280;5880;52.342;9.662;2022-12-29T10:56:56;99581.69;;;14.76;58.02
11648;BME280;5880;52.342;9.662;2022-12-29T10:59:30;99592.41;;;14.78;57.92
11648;BME280;5880;52.342;9.662;2022-12-29T11:05:09;99596.78;;;14.79;57.82
11648;BME280;5880;52.342;9.662;2022-12-29T11:07:38;99602.59;;;14.77;57.47
11648;BME280;5880;52.342;9.662;2022-12-29T11:13:11;99591.00;;;14.81;57.45
11648;BME280;5880;52.342;9.662;2022-12-29T11:15:49;99590.72;;;14.82;57.57
11648;BME280;5880;52.342;9.662;2022-12-29T11:18:46;99595.13;;;14.83;57.46
11648;BME280;5880;52.342;9.662;2022-12-29T11:21:35;99607.25;;;14.82;57.36
11648;BME280;5880;52.342;9.662;2022-12-29T11:24:30;99592.94;;;14.80;57.34
11648;BME280;5880;52.342;9.662;2022-12-29T11:27:15;99594.84;;;14.80;57.30
11648;BME280;5880;52.342;9.662;2022-12-29T11:29:43;99591.28;;;14.79;57.34
11648;BME280;5880;52.342;9.662;2022-12-29T11:32:28;99589.63;;;14.83;57.69
11648;BME280;5880;52.342;9.662;2022-12-29T11:34:57;99595.13;;;14.83;57.40
11648;BME280;5880;52.342;9.662;2022-12-29T11:37:36;99586.81;;;14.88;57.32
11648;BME280;5880;52.342;9.662;2022-12-29T11:40:19;99597.81;;;14.88;57.29
11648;BME280;5880;52.342;9.662;2022-12-29T11:42:54;99590.94;;;14.91;57.32
11648;BME280;5880;52.342;9.662;2022-12-29T11:45:33;99587.63;;;14.94;57.26
11648;BME280;5880;52.342;9.662;2022-12-29T11:48:08;99588.72;;;14.93;57.10
11648;BME280;5880;52.342;9.662;2022-12-29T11:50:39;99592.81;;;14.95;57.12
11648;BME280;5880;52.342;9.662;2022-12-29T11:53:23;99600.53;;;14.98;57.10
11648;BME280;5880;52.342;9.662;2022-12-29T11:55:56;99605.72;;;15.00;57.23
11648;BME280;5880;52.342;9.662;2022-12-29T11:58:31;99613.13;;;15.05;57.17
11648;BME280;5880;52.342;9.662;2022-12-29T12:03:40;99610.31;;;15.15;57.22
11648;BME280;5880;52.342;9.662;2022-12-29T12:06:16;99611.06;;;15.20;57.10
11648;BME280;5880;52.342;9.662;2022-12-29T12:08:55;99609.09;;;15.26;56.91
11648;BME280;5880;52.342;9.662;2022-12-29T12:11:34;99618.44;;;15.30;56.93
11648;BME280;5880;52.342;9.662;2022-12-29T12:14:29;99625.81;;;15.35;56.64
11648;BME280;5880;52.342;9.662;2022-12-29T12:17:02;99628.84;;;15.38;56.53
11648;BME280;5880;52.342;9.662;2022-12-29T12:19:38;99621.09;;;15.40;56.18
11648;BME280;5880;52.342;9.662;2022-12-29T12:22:51;99621.09;;;15.40;56.20
11648;BME280;5880;52.342;9.662;2022-12-29T12:25:23;99620.56;;;15.38;55.93
11648;BME280;5880;52.342;9.662;2022-12-29T12:28:09;99621.09;;;15.40;55.95
11648;BME280;5880;52.342;9.662;2022-12-29T12:30:44;99620.25;;;15.40;55.89
11648;BME280;5880;52.342;9.662;2022-12-29T12:33:41;99610.09;;;15.40;55.74
11648;BME280;5880;52.342;9.662;2022-12-29T12:36:46;99628.84;;;15.38;55.65
11648;BME280;5880;52.342;9.662;2022-12-29T12:39:27;99630.47;;;15.39;55.87
11648;BME280;5880;52.342;9.662;2022-12-29T12:45:49;99632.69;;;15.37;55.80
11648;BME280;5880;52.342;9.662;2022-12-29T12:49:01;99632.69;;;15.37;55.62
11648;BME280;5880;52.342;9.662;2022-12-29T12:51:53;99622.78;;;15.36;55.65
11648;BME280;5880;52.342;9.662;2022-12-29T13:00:14;99627.16;;;15.37;55.57
11648;BME280;5880;52.342;9.662;2022-12-29T13:12:41;99642.06;;;15.36;55.26
11648;BME280;5880;52.342;9.662;2022-12-29T13:16:02;99640.16;;;15.32;55.25
11648;BME280;5880;52.342;9.662;2022-12-29T13:18:46;99648.09;;;15.38;55.16
11648;BME280;5880;52.342;9.662;2022-12-29T13:21:47;99651.66;;;15.39;54.93
11648;BME280;5880;52.342;9.662;2022-12-29T13:27:23;99654.44;;;15.39;54.79
11648;BME280;5880;52.342;9.662;2022-12-29T13:30:15;99676.19;;;15.40;54.67
11648;BME280;5880;52.342;9.662;2022-12-29T13:33:24;99660.22;;;15.37;54.75
11648;BME280;5880;52.342;9.662;2022-12-29T13:36:10;99674.50;;;15.39;54.53
11648;BME280;5880;52.342;9.662;2022-12-29T13:38:44;99675.63;;;15.38;54.47
11648;BME280;5880;52.342;9.662;2022-12-29T13:41:19;99682.78;;;15.39;54.24
11648;BME280;5880;52.342;9.662;2022-12-29T13:43:48;99676.19;;;15.35;54.36
11648;BME280;5880;52.342;9.662;2022-12-29T13:46:31;99686.66;;;15.38;53.98
11648;BME280;5880;52.342;9.662;2022-12-29T13:49:08;99696.81;;;15.38;54.05
11648;BME280;5880;52.342;9.662;2022-12-29T13:51:56;99697.94;;;15.37;54.11
11648;BME280;5880;52.342;9.662;2022-12-29T13:58:15;99715.91;;;15.29;54.29
11648;BME280;5880;52.342;9.662;2022-12-29T14:00:56;99721.69;;;15.28;54.17
11648;BME280;5880;52.342;9.662;2022-12-29T14:03:45;99718.91;;;15.28;53.99
11648;BME280;5880;52.342;9.662;2022-12-29T14:06:28;99727.44;;;15.26;54.02
11648;BME280;5880;52.342;9.662;2022-12-29T14:09:00;99729.38;;;15.26;54.03
11648;BME280;5880;52.342;9.662;2022-12-29T14:11:36;99744.28;;;15.25;53.93
11648;BME280;5880;52.342;9.662;2022-12-29T14:14:21;99736.84;;;15.25;53.98
11648;BME280;5880;52.342;9.662;2022-12-29T14:16:47;99755.81;;;15.22;53.94
11648;BME280;5880;52.342;9.662;2022-12-29T14:19:18;99763.00;;;15.23;53.89
11648;BME280;5880;52.342;9.662;2022-12-29T14:22:01;99760.25;;;15.23;53.83
11648;BME280;5880;52.342;9.662;2022-12-29T14:24:43;99770.44;;;15.22;53.76
11648;BME280;5880;52.342;9.662;2022-12-29T14:35:41;99783.38;;;15.16;53.74
11648;BME280;5880;52.342;9.662;2022-12-29T14:38:21;99780.63;;;15.16;53.58
11648;BME280;5880;52.342;9.662;2022-12-29T14:40:48;99789.47;;;15.13;53.74
11648;BME280;5880;52.342;9.662;2022-12-29T14:43:26;99793.56;;;15.16;53.52